Time;durP1;ratioP1;P1;durP2;ratioP2;P2;SDS_P1;SDS_P2;PMS_P1;PMS_P2;Temp;Humidity;BMP_temperature;BMP_pressure;BME280_temperature;BME280_humidity;BME280_pressure;Samples;Min_cycle;Max_cycle;Signal;HPM_P1;HPM_P2
2022/02/26 00:00:04;;;;;;;;;;;;;;;;;;1043049;28;924;-41
2022/02/26 00:00:35;;;;;;;;;;;;;;;;;;1043075;28;707;-42
2022/02/26 00:01:05;;;;;;;;;;;;;;;;;;1042978;28;915;-42
2022/02/26 00:01:35;;;;;;;;;;;;;;;;;;1043102;28;873;-42
2022/02/26 00:02:06;;;;;;;;;;;;;;;;;;1043096;28;936;-41
2022/02/26 00:02:36;;;;;;;;;;;;;;;;;;1043014;28;969;-41
2022/02/26 00:03:06;;;;;;;;;;;;;;;;;;1043041;28;1007;-42
2022/02/26 00:03:37;;;;;;;;;;;;;;;;;;1042831;28;852;-41
2022/02/26 00:04:08;;;;;;;;;;;;;;;;;;1043170;28;901;-42
2022/02/26 00:04:38;;;;;;;;;;;;;;;;;;1042940;28;976;-41
2022/02/26 00:05:08;;;;;;;;;;;;;;;;;;1043047;28;902;-41
2022/02/26 00:05:41;;;;;;;;;;;;;;;;;;1043167;28;861;-41
2022/02/26 00:06:11;;;;;;;;;;;;;;;;;;1042192;28;898;-41
2022/02/26 00:06:42;;;;;;;;;;;;;;;;;;1043270;28;942;-42
2022/02/26 00:07:12;;;;;;;;;;;;;;;;;;1042726;28;959;-41
2022/02/26 00:07:42;;;;;;;;;;;;;;;;;;1043024;28;1157;-42
2022/02/26 00:08:13;;;;;;;;;;;;;;;;;;1042784;28;1913;-42
2022/02/26 00:08:43;;;;;;;;;;;;;;;;;;1046896;28;998;-42
2022/02/26 00:09:14;;;;;;;;;;;;;;;;;;1046518;28;923;-41
2022/02/26 00:09:45;;;;;;;;;;;;;;;;;;1047039;28;845;-42
2022/02/26 00:10:15;;;;;;;;;;;;;;;;;;1046394;28;1436;-42
2022/02/26 00:10:45;;;;;;;;;;;;;;;;;;1043171;28;976;-42
2022/02/26 00:11:16;;;;;;;;;;;;;;;;;;1042899;28;1139;-42
2022/02/26 00:11:46;;;;;;;;;;;;;;;;;;1043050;28;1012;-42
2022/02/26 00:12:16;;;;;;;;;;;;;;;;;;1042957;28;932;-42
2022/02/26 00:12:47;;;;;;;;;;;;;;;;;;1042981;28;897;-42
2022/02/26 00:13:17;;;;;;;;;;;;;;;;;;1042625;28;1011;-42
2022/02/26 00:13:47;;;;;;;;;;;;;;;;;;1042554;28;893;-42
2022/02/26 00:14:18;;;;;;;;;;;;;;;;;;1043126;28;945;-42
2022/02/26 00:14:48;;;;;;;;;;;;;;;;;;1042945;28;940;-42
2022/02/26 00:15:19;;;;;;;;;;;;;;;;;;1042990;28;982;-42
2022/02/26 00:15:49;;;;;;;;;;;;;;;;;;1042943;28;968;-42
2022/02/26 00:16:19;;;;;;;;;;;;;;;;;;1044898;28;1139;-42
2022/02/26 00:16:50;;;;;;;;;;;;;;;;;;1047148;28;955;-41
2022/02/26 00:17:20;;;;;;;;;;;;;;;;;;1046927;28;1028;-42
2022/02/26 00:17:50;;;;;;;;;;;;;;;;;;1046545;28;1406;-42
2022/02/26 00:18:21;;;;;;;;;;;;;;;;;;1045451;28;822;-41
2022/02/26 00:18:51;;;;;;;;;;;;;;;;;;1043368;28;1062;-41
2022/02/26 00:19:21;;;;;;;;;;;;;;;;;;1046889;28;951;-41
2022/02/26 00:19:52;;;;;;;;;;;;;;;;;;1047252;28;787;-42
2022/02/26 00:20:22;;;;;;;;;;;;;;;;;;1042944;28;794;-41
2022/02/26 00:20:54;;;;;;;;;;;;;;;;;;1042501;28;1003;-42
2022/02/26 00:21:25;;;;;;;;;;;;;;;;;;1043037;28;1581;-42
2022/02/26 00:21:55;;;;;;;;;;;;;;;;;;1042973;28;964;-42
2022/02/26 00:22:25;;;;;;;;;;;;;;;;;;1043257;28;923;-42
2022/02/26 00:22:56;;;;;;;;;;;;;;;;;;1042927;28;932;-42
2022/02/26 00:23:26;;;;;;;;;;;;;;;;;;1043015;28;952;-42
2022/02/26 00:23:56;;;;;;;;;;;;;;;;;;1042864;28;1007;-42
2022/02/26 00:24:27;;;;;;;;;;;;;;;;;;1043060;28;1094;-42
2022/02/26 00:24:57;;;;;;;;;;;;;;;;;;1042951;28;941;-42
2022/02/26 00:25:28;;;;;;;;;;;;;;;;;;1043015;28;802;-42
2022/02/26 00:25:58;;;;;;;;;;;;;;;;;;1042938;28;859;-42
2022/02/26 00:26:28;;;;;;;;;;;;;;;;;;1042999;28;825;-42
2022/02/26 00:26:59;;;;;;;;;;;;;;;;;;1043043;28;927;-42
2022/02/26 00:27:29;;;;;;;;;;;;;;;;;;1042191;28;1082;-42
2022/02/26 00:28:01;;;;;;;;;;;;;;;;;;1042789;28;1906;-42
2022/02/26 00:28:31;;;;;;;;;;;;;;;;;;1041959;28;790;-42
2022/02/26 00:29:03;;;;;;;;;;;;;;;;;;1042944;28;1000;-42
2022/02/26 00:29:34;;;;;;;;;;;;;;;;;;1042684;28;1480;-42
2022/02/26 00:30:05;;;;;;;;;;;;;;;;;;1044626;28;968;-42
2022/02/26 00:30:36;;;;;;;;;;;;;;;;;;1046974;28;917;-42
2022/02/26 00:31:07;;;;;;;;;;;;;;;;;;1045494;28;936;-39
2022/02/26 00:31:37;;;;;;;;;;;;;;;;;;1043241;28;1098;-42
2022/02/26 00:32:08;;;;;;;;;;;;;;;;;;1047145;28;794;-42
2022/02/26 00:32:39;;;;;;;;;;;;;;;;;;1044591;28;988;-42
2022/02/26 00:33:09;;;;;;;;;;;;;;;;;;1045038;28;881;-42
2022/02/26 00:33:39;;;;;;;;;;;;;;;;;;1046887;28;920;-42
2022/02/26 00:34:09;;;;;;;;;;;;;;;;;;1046964;28;969;-41
2022/02/26 00:34:40;;;;;;;;;;;;;;;;;;1047341;28;1084;-42
2022/02/26 00:35:11;;;;;;;;;;;;;;;;;;1050331;28;913;-42
2022/02/26 00:35:41;;;;;;;;;;;;;;;;;;1051893;28;892;-41
2022/02/26 00:36:12;;;;;;;;;;;;;;;;;;1052002;28;940;-41
2022/02/26 00:36:42;;;;;;;;;;;;;;;;;;1051826;28;912;-41
2022/02/26 00:37:14;;;;;;;;;;;;;;;;;;1052122;28;1062;-42
2022/02/26 00:37:44;;;;;;;;;;;;;;;;;;1051801;28;944;-41
2022/02/26 00:38:15;;;;;;;;;;;;;;;;;;1052065;28;1071;-41
2022/02/26 00:38:46;;;;;;;;;;;;;;;;;;1051809;28;898;-41
2022/02/26 00:39:17;;;;;;;;;;;;;;;;;;1052168;28;1085;-42
2022/02/26 00:39:47;;;;;;;;;;;;;;;;;;1051746;28;924;-42
2022/02/26 00:40:18;;;;;;;;;;;;;;;;;;1052159;28;916;-42
2022/02/26 00:40:48;;;;;;;;;;;;;;;;;;1051752;28;940;-42
2022/02/26 00:41:18;;;;;;;;;;;;;;;;;;1052235;28;928;-42
2022/02/26 00:41:49;;;;;;;;;;;;;;;;;;1051959;28;919;-42
2022/02/26 00:42:19;;;;;;;;;;;;;;;;;;1051496;28;1614;-42
2022/02/26 00:42:49;;;;;;;;;;;;;;;;;;1051899;28;892;-42
2022/02/26 00:43:20;;;;;;;;;;;;;;;;;;1052080;28;888;-41
2022/02/26 00:43:50;;;;;;;;;;;;;;;;;;1052068;28;1066;-42
2022/02/26 00:44:21;;;;;;;;;;;;;;;;;;1051936;28;964;-42
2022/02/26 00:44:51;;;;;;;;;;;;;;;;;;1052178;28;924;-42
2022/02/26 00:45:21;;;;;;;;;;;;;;;;;;1051842;28;924;-42
2022/02/26 00:45:52;;;;;;;;;;;;;;;;;;1052108;28;1030;-42
2022/02/26 00:46:22;;;;;;;;;;;;;;;;;;1051997;28;911;-41
2022/02/26 00:46:52;;;;;;;;;;;;;;;;;;1052050;28;865;-42
2022/02/26 00:47:23;;;;;;;;;;;;;;;;;;1051805;28;1078;-42
2022/02/26 00:47:53;;;;;;;;;;;;;;;;;;1052012;28;901;-41
2022/02/26 00:49:46;;;;;;;;;;;;;;;;;;1051968;28;1909;-43
2022/02/26 00:50:04;;;;;;;;;;;;;;;;;;1051342;28;936;-42
2022/02/26 00:50:34;;;;;;;;;;;;;;;;;;1052113;28;873;-41
2022/02/26 00:51:05;;;;;;;;;;;;;;;;;;1051955;28;1166;-41
2022/02/26 00:51:35;;;;;;;;;;;;;;;;;;1051833;28;944;-41
2022/02/26 00:52:05;;;;;;;;;;;;;;;;;;1052008;28;1027;-41
2022/02/26 00:52:36;;;;;;;;;;;;;;;;;;1051918;28;909;-41
2022/02/26 00:53:06;;;;;;;;;;;;;;;;;;1052206;28;1062;-42
2022/02/26 00:53:36;;;;;;;;;;;;;;;;;;1051740;28;869;-41
2022/02/26 00:54:07;;;;;;;;;;;;;;;;;;1052076;28;1067;-41
2022/02/26 00:54:37;;;;;;;;;;;;;;;;;;1051709;28;1410;-41
2022/02/26 00:55:08;;;;;;;;;;;;;;;;;;1052082;28;860;-42
2022/02/26 00:55:39;;;;;;;;;;;;;;;;;;1051923;28;952;-41
2022/02/26 00:56:09;;;;;;;;;;;;;;;;;;1051990;28;810;-42
2022/02/26 00:56:41;;;;;;;;;;;;;;;;;;1052093;28;952;-42
2022/02/26 00:57:12;;;;;;;;;;;;;;;;;;1051327;28;852;-42
2022/02/26 00:57:42;;;;;;;;;;;;;;;;;;1051816;28;960;-42
2022/02/26 00:58:14;;;;;;;;;;;;;;;;;;1051896;28;790;-42
2022/02/26 00:58:45;;;;;;;;;;;;;;;;;;1052075;28;921;-42
2022/02/26 00:59:15;;;;;;;;;;;;;;;;;;1051748;28;1087;-42
2022/02/26 00:59:46;;;;;;;;;;;;;;;;;;1052089;28;1004;-42
2022/02/26 01:00:16;;;;;;;;;;;;;;;;;;1051746;28;1043;-41
2022/02/26 01:00:46;;;;;;;;;;;;;;;;;;1052037;28;821;-41
2022/02/26 01:01:17;;;;;;;;;;;;;;;;;;1051972;28;908;-42
2022/02/26 01:01:47;;;;;;;;;;;;;;;;;;1051809;28;1007;-42
2022/02/26 01:02:18;;;;;;;;;;;;;;;;;;1052162;28;932;-42
2022/02/26 01:02:48;;;;;;;;;;;;;;;;;;1051740;28;921;-42
2022/02/26 01:03:18;;;;;;;;;;;;;;;;;;1052152;28;933;-42
2022/02/26 01:03:49;;;;;;;;;;;;;;;;;;1051770;28;861;-42
2022/02/26 01:04:19;;;;;;;;;;;;;;;;;;1052050;28;975;-42
2022/02/26 01:04:50;;;;;;;;;;;;;;;;;;1051135;28;862;-42
2022/02/26 01:05:20;;;;;;;;;;;;;;;;;;1052168;28;920;-42
2022/02/26 01:05:50;;;;;;;;;;;;;;;;;;1051761;28;841;-42
2022/02/26 01:06:21;;;;;;;;;;;;;;;;;;1052076;28;921;-42
2022/02/26 01:06:51;;;;;;;;;;;;;;;;;;1051848;28;1006;-42
2022/02/26 01:07:22;;;;;;;;;;;;;;;;;;1051806;28;1240;-42
2022/02/26 01:07:52;;;;;;;;;;;;;;;;;;1051880;28;865;-42
2022/02/26 01:08:23;;;;;;;;;;;;;;;;;;1051773;28;1914;-42
2022/02/26 01:08:53;;;;;;;;;;;;;;;;;;1052071;28;963;-42
2022/02/26 01:09:23;;;;;;;;;;;;;;;;;;1051721;28;951;-42
2022/02/26 01:09:54;;;;;;;;;;;;;;;;;;1052141;28;936;-42
2022/02/26 01:10:24;;;;;;;;;;;;;;;;;;1051845;28;1404;-42
2022/02/26 01:10:55;;;;;;;;;;;;;;;;;;1051940;28;885;-42
2022/02/26 01:11:25;;;;;;;;;;;;;;;;;;1052011;28;983;-42
2022/02/26 01:11:56;;;;;;;;;;;;;;;;;;1051288;28;877;-42
2022/02/26 01:12:27;;;;;;;;;;;;;;;;;;1051867;28;896;-42
2022/02/26 01:12:57;;;;;;;;;;;;;;;;;;1051987;28;960;-42
2022/02/26 01:13:27;;;;;;;;;;;;;;;;;;1051753;28;917;-42
2022/02/26 01:13:59;;;;;;;;;;;;;;;;;;1051931;28;794;-42
2022/02/26 01:14:30;;;;;;;;;;;;;;;;;;1051748;28;935;-42
2022/02/26 01:15:03;;;;;;;;;;;;;;;;;;1051911;28;1027;-42
2022/02/26 01:15:33;;;;;;;;;;;;;;;;;;1051924;28;949;-42
2022/02/26 01:16:03;;;;;;;;;;;;;;;;;;1051969;28;999;-42
2022/02/26 01:16:34;;;;;;;;;;;;;;;;;;1047840;28;1139;-42
2022/02/26 01:17:05;;;;;;;;;;;;;;;;;;1047900;28;1019;-42
2022/02/26 01:17:36;;;;;;;;;;;;;;;;;;1047303;28;837;-41
2022/02/26 01:18:07;;;;;;;;;;;;;;;;;;1047919;28;1021;-42
2022/02/26 01:18:37;;;;;;;;;;;;;;;;;;1047412;28;865;-41
2022/02/26 01:19:07;;;;;;;;;;;;;;;;;;1047920;28;907;-41
2022/02/26 01:19:38;;;;;;;;;;;;;;;;;;1046926;28;929;-42
2022/02/26 01:20:08;;;;;;;;;;;;;;;;;;1047773;28;916;-42
2022/02/26 01:20:39;;;;;;;;;;;;;;;;;;1047596;28;959;-41
2022/02/26 01:21:09;;;;;;;;;;;;;;;;;;1047682;28;868;-41
2022/02/26 01:21:39;;;;;;;;;;;;;;;;;;1047755;28;959;-41
2022/02/26 01:22:10;;;;;;;;;;;;;;;;;;1047773;28;829;-42
2022/02/26 01:22:42;;;;;;;;;;;;;;;;;;1047635;28;912;-42
2022/02/26 01:23:12;;;;;;;;;;;;;;;;;;1047645;28;853;-41
2022/02/26 01:23:42;;;;;;;;;;;;;;;;;;1047700;28;1102;-42
2022/02/26 01:24:13;;;;;;;;;;;;;;;;;;1047468;28;976;-42
2022/02/26 01:24:43;;;;;;;;;;;;;;;;;;1047763;28;817;-42
2022/02/26 01:25:14;;;;;;;;;;;;;;;;;;1047479;28;988;-42
2022/02/26 01:25:44;;;;;;;;;;;;;;;;;;1047745;28;957;-42
2022/02/26 01:26:18;;;;;;;;;;;;;;;;;;1047710;28;955;-42
2022/02/26 01:26:48;;;;;;;;;;;;;;;;;;1046888;28;899;-42
2022/02/26 01:27:19;;;;;;;;;;;;;;;;;;1047721;28;932;-42
2022/02/26 01:27:49;;;;;;;;;;;;;;;;;;1047301;28;1298;-42
2022/02/26 01:28:20;;;;;;;;;;;;;;;;;;1047776;28;1915;-42
2022/02/26 01:28:50;;;;;;;;;;;;;;;;;;1047416;28;1003;-41
2022/02/26 01:29:21;;;;;;;;;;;;;;;;;;1047777;28;975;-42
2022/02/26 01:29:51;;;;;;;;;;;;;;;;;;1047503;28;940;-41
2022/02/26 01:30:21;;;;;;;;;;;;;;;;;;1047904;28;869;-42
2022/02/26 01:30:52;;;;;;;;;;;;;;;;;;1047539;28;924;-42
2022/02/26 01:31:22;;;;;;;;;;;;;;;;;;1047653;28;1115;-41
2022/02/26 01:31:52;;;;;;;;;;;;;;;;;;1047505;28;987;-41
2022/02/26 01:32:23;;;;;;;;;;;;;;;;;;1047783;28;877;-42
2022/02/26 01:32:53;;;;;;;;;;;;;;;;;;1047633;28;900;-41
2022/02/26 01:33:24;;;;;;;;;;;;;;;;;;1047512;28;900;-41
2022/02/26 01:33:55;;;;;;;;;;;;;;;;;;1047743;28;896;-41
2022/02/26 01:34:25;;;;;;;;;;;;;;;;;;1046956;28;936;-41
2022/02/26 01:34:55;;;;;;;;;;;;;;;;;;1050529;28;1135;-42
2022/02/26 01:35:26;;;;;;;;;;;;;;;;;;1051878;28;935;-41
2022/02/26 01:35:56;;;;;;;;;;;;;;;;;;1051632;28;849;-41
2022/02/26 01:36:26;;;;;;;;;;;;;;;;;;1051921;28;860;-41
2022/02/26 01:36:57;;;;;;;;;;;;;;;;;;1051687;28;893;-42
2022/02/26 01:37:27;;;;;;;;;;;;;;;;;;1051746;28;951;-41
2022/02/26 01:37:57;;;;;;;;;;;;;;;;;;1051734;28;888;-42
2022/02/26 01:38:28;;;;;;;;;;;;;;;;;;1051879;28;900;-42
2022/02/26 01:39:00;;;;;;;;;;;;;;;;;;1051155;28;1259;-42
2022/02/26 01:39:30;;;;;;;;;;;;;;;;;;1051632;28;835;-42
2022/02/26 01:40:01;;;;;;;;;;;;;;;;;;1051183;28;924;-42
2022/02/26 01:40:32;;;;;;;;;;;;;;;;;;1051948;28;837;-42
2022/02/26 01:41:03;;;;;;;;;;;;;;;;;;1055641;28;877;-42
2022/02/26 01:41:35;;;;;;;;;;;;;;;;;;1054706;28;928;-42
2022/02/26 01:42:05;;;;;;;;;;;;;;;;;;1051853;28;1077;-42
2022/02/26 01:42:35;;;;;;;;;;;;;;;;;;1051687;28;845;-41
2022/02/26 01:43:06;;;;;;;;;;;;;;;;;;1051965;28;1007;-42
2022/02/26 01:43:36;;;;;;;;;;;;;;;;;;1051580;28;1017;-42
2022/02/26 01:44:07;;;;;;;;;;;;;;;;;;1051808;28;809;-42
2022/02/26 01:44:43;;;;;;;;;;;;;;;;;;1051866;28;860;-42
2022/02/26 01:45:15;;;;;;;;;;;;;;;;;;1051652;28;817;-42
2022/02/26 01:45:46;;;;;;;;;;;;;;;;;;1051951;28;1067;-42
2022/02/26 01:46:16;;;;;;;;;;;;;;;;;;1051533;28;935;-42
2022/02/26 01:46:47;;;;;;;;;;;;;;;;;;1051768;28;1629;-42
2022/02/26 01:47:17;;;;;;;;;;;;;;;;;;1051519;28;964;-42
2022/02/26 01:47:48;;;;;;;;;;;;;;;;;;1051724;28;1007;-41
2022/02/26 01:48:18;;;;;;;;;;;;;;;;;;1051601;28;1975;-42
2022/02/26 01:48:48;;;;;;;;;;;;;;;;;;1051718;28;979;-42
2022/02/26 01:49:19;;;;;;;;;;;;;;;;;;1051106;28;844;-42
2022/02/26 01:49:50;;;;;;;;;;;;;;;;;;1051802;28;892;-42
2022/02/26 01:50:20;;;;;;;;;;;;;;;;;;1051788;28;1121;-42
2022/02/26 01:50:51;;;;;;;;;;;;;;;;;;1051619;28;801;-41
2022/02/26 01:51:22;;;;;;;;;;;;;;;;;;1051927;28;939;-42
2022/02/26 01:51:52;;;;;;;;;;;;;;;;;;1051535;28;821;-41
2022/02/26 01:52:22;;;;;;;;;;;;;;;;;;1051882;28;924;-42
2022/02/26 01:52:53;;;;;;;;;;;;;;;;;;1051412;28;1023;-42
2022/02/26 01:53:23;;;;;;;;;;;;;;;;;;1051888;28;928;-42
2022/02/26 01:53:53;;;;;;;;;;;;;;;;;;1051689;28;974;-42
2022/02/26 01:54:24;;;;;;;;;;;;;;;;;;1051712;28;889;-42
2022/02/26 01:54:54;;;;;;;;;;;;;;;;;;1051731;28;1101;-41
2022/02/26 01:55:28;;;;;;;;;;;;;;;;;;1051706;28;980;-42
2022/02/26 01:55:58;;;;;;;;;;;;;;;;;;1051867;28;948;-42
2022/02/26 01:56:29;;;;;;;;;;;;;;;;;;1051004;28;995;-42
2022/02/26 01:56:59;;;;;;;;;;;;;;;;;;1051718;28;948;-42
2022/02/26 01:57:30;;;;;;;;;;;;;;;;;;1051497;28;912;-42
2022/02/26 01:58:01;;;;;;;;;;;;;;;;;;1051583;28;889;-42
2022/02/26 01:58:32;;;;;;;;;;;;;;;;;;1051188;28;904;-42
2022/02/26 01:59:03;;;;;;;;;;;;;;;;;;1051414;28;758;-42
2022/02/26 01:59:33;;;;;;;;;;;;;;;;;;1051420;28;1305;-41
2022/02/26 02:00:05;;;;;;;;;;;;;;;;;;1051696;28;809;-41
2022/02/26 02:00:35;;;;;;;;;;;;;;;;;;1051881;28;1018;-41
2022/02/26 02:01:06;;;;;;;;;;;;;;;;;;1051403;28;857;-41
2022/02/26 02:01:36;;;;;;;;;;;;;;;;;;1052067;28;951;-41
2022/02/26 02:02:07;;;;;;;;;;;;;;;;;;1051445;28;880;-41
2022/02/26 02:02:37;;;;;;;;;;;;;;;;;;1051930;28;1710;-42
2022/02/26 02:03:08;;;;;;;;;;;;;;;;;;1051584;28;1205;-42
2022/02/26 02:03:38;;;;;;;;;;;;;;;;;;1051576;28;924;-42
2022/02/26 02:04:08;;;;;;;;;;;;;;;;;;1051346;28;1244;-42
2022/02/26 02:04:40;;;;;;;;;;;;;;;;;;1051672;28;869;-42
2022/02/26 02:05:10;;;;;;;;;;;;;;;;;;1051690;28;1007;-42
2022/02/26 02:05:43;;;;;;;;;;;;;;;;;;1051683;28;861;-42
2022/02/26 02:06:14;;;;;;;;;;;;;;;;;;1051731;28;1066;-42
2022/02/26 02:06:44;;;;;;;;;;;;;;;;;;1051601;28;990;-42
2022/02/26 02:07:15;;;;;;;;;;;;;;;;;;1051718;28;1208;-42
2022/02/26 02:07:45;;;;;;;;;;;;;;;;;;1051487;28;1042;-42
2022/02/26 02:08:16;;;;;;;;;;;;;;;;;;1051761;28;1910;-42
2022/02/26 02:08:47;;;;;;;;;;;;;;;;;;1051281;28;897;-42
2022/02/26 02:09:17;;;;;;;;;;;;;;;;;;1051230;28;817;-42
2022/02/26 02:09:48;;;;;;;;;;;;;;;;;;1051404;28;1010;-42
2022/02/26 02:10:19;;;;;;;;;;;;;;;;;;1051147;28;1766;-41
2022/02/26 02:10:50;;;;;;;;;;;;;;;;;;1051938;28;917;-42
2022/02/26 02:11:22;;;;;;;;;;;;;;;;;;1050741;28;962;-40
2022/02/26 02:11:52;;;;;;;;;;;;;;;;;;1051948;28;912;-42
2022/02/26 02:12:23;;;;;;;;;;;;;;;;;;1051587;28;1166;-42
2022/02/26 02:12:53;;;;;;;;;;;;;;;;;;1051749;28;793;-42
2022/02/26 02:13:23;;;;;;;;;;;;;;;;;;1051557;28;841;-42
2022/02/26 02:13:54;;;;;;;;;;;;;;;;;;1051647;28;961;-42
2022/02/26 02:14:24;;;;;;;;;;;;;;;;;;1051629;28;960;-42
2022/02/26 02:14:54;;;;;;;;;;;;;;;;;;1051734;28;925;-42
2022/02/26 02:15:32;;;;;;;;;;;;;;;;;;1051560;28;971;-42
2022/02/26 02:16:02;;;;;;;;;;;;;;;;;;1051640;28;1064;-42
2022/02/26 02:16:36;;;;;;;;;;;;;;;;;;1051593;28;779;-42
2022/02/26 02:17:07;;;;;;;;;;;;;;;;;;1043368;28;935;-42
2022/02/26 02:17:37;;;;;;;;;;;;;;;;;;1043211;28;773;-41
2022/02/26 02:18:08;;;;;;;;;;;;;;;;;;1043294;28;940;-41
2022/02/26 02:18:41;;;;;;;;;;;;;;;;;;1042768;28;897;-42
2022/02/26 02:19:11;;;;;;;;;;;;;;;;;;1043592;28;1000;-41
2022/02/26 02:19:42;;;;;;;;;;;;;;;;;;1046764;28;1036;-41
2022/02/26 02:20:13;;;;;;;;;;;;;;;;;;1047348;28;787;-41
2022/02/26 02:20:44;;;;;;;;;;;;;;;;;;1046978;28;905;-41
2022/02/26 02:21:15;;;;;;;;;;;;;;;;;;1046862;28;1626;-42
2022/02/26 02:21:45;;;;;;;;;;;;;;;;;;1043348;28;1375;-41
2022/02/26 02:22:19;;;;;;;;;;;;;;;;;;1043238;28;932;-42
2022/02/26 02:22:49;;;;;;;;;;;;;;;;;;1043501;28;1020;-41
2022/02/26 02:23:20;;;;;;;;;;;;;;;;;;1042994;28;959;-42
2022/02/26 02:23:50;;;;;;;;;;;;;;;;;;1043622;28;920;-41
2022/02/26 02:24:21;;;;;;;;;;;;;;;;;;1043146;28;893;-41
2022/02/26 02:24:51;;;;;;;;;;;;;;;;;;1043346;28;834;-41
2022/02/26 02:25:31;;;;;;;;;;;;;;;;;;1043311;28;1018;-41
2022/02/26 02:26:02;;;;;;;;;;;;;;;;;;1042453;28;897;-41
2022/02/26 02:26:33;;;;;;;;;;;;;;;;;;1043394;28;955;-41
2022/02/26 02:27:04;;;;;;;;;;;;;;;;;;1043261;28;836;-42
2022/02/26 02:27:34;;;;;;;;;;;;;;;;;;1043059;28;1318;-41
2022/02/26 02:28:06;;;;;;;;;;;;;;;;;;1043191;28;1969;-41
2022/02/26 02:28:38;;;;;;;;;;;;;;;;;;1043207;28;868;-41
2022/02/26 02:29:08;;;;;;;;;;;;;;;;;;1043460;28;881;-41
2022/02/26 02:29:39;;;;;;;;;;;;;;;;;;1043326;28;798;-41
2022/02/26 02:30:09;;;;;;;;;;;;;;;;;;1043285;28;897;-41
2022/02/26 02:30:40;;;;;;;;;;;;;;;;;;1043209;28;1664;-41
2022/02/26 02:31:10;;;;;;;;;;;;;;;;;;1043375;28;1184;-42
2022/02/26 02:31:40;;;;;;;;;;;;;;;;;;1042989;28;975;-41
2022/02/26 02:32:11;;;;;;;;;;;;;;;;;;1043468;28;909;-42
2022/02/26 02:32:42;;;;;;;;;;;;;;;;;;1043101;28;1230;-41
2022/02/26 02:33:12;;;;;;;;;;;;;;;;;;1043477;28;798;-41
2022/02/26 02:33:46;;;;;;;;;;;;;;;;;;1042627;28;872;-41
2022/02/26 02:34:18;;;;;;;;;;;;;;;;;;1043151;28;814;-41
2022/02/26 02:34:49;;;;;;;;;;;;;;;;;;1047247;28;1155;-41
2022/02/26 02:35:45;;;;;;;;;;;;;;;;;;1051468;28;900;-41
2022/02/26 02:36:16;;;;;;;;;;;;;;;;;;1050099;28;1798;-42
2022/02/26 02:36:47;;;;;;;;;;;;;;;;;;1051588;28;968;-42
2022/02/26 02:37:17;;;;;;;;;;;;;;;;;;1051574;28;857;-42
2022/02/26 02:37:48;;;;;;;;;;;;;;;;;;1051396;28;924;-42
2022/02/26 02:38:18;;;;;;;;;;;;;;;;;;1051689;28;1164;-42
2022/02/26 02:38:49;;;;;;;;;;;;;;;;;;1051620;28;983;-42
2022/02/26 02:39:19;;;;;;;;;;;;;;;;;;1051535;28;916;-42
2022/02/26 02:39:49;;;;;;;;;;;;;;;;;;1051662;28;917;-42
2022/02/26 02:40:20;;;;;;;;;;;;;;;;;;1051593;28;1597;-42
2022/02/26 02:40:51;;;;;;;;;;;;;;;;;;1050854;28;867;-42
2022/02/26 02:41:21;;;;;;;;;;;;;;;;;;1051711;28;900;-42
2022/02/26 02:41:52;;;;;;;;;;;;;;;;;;1051334;28;1055;-42
2022/02/26 02:42:22;;;;;;;;;;;;;;;;;;1051759;28;814;-42
2022/02/26 02:42:53;;;;;;;;;;;;;;;;;;1051420;28;812;-42
2022/02/26 02:43:23;;;;;;;;;;;;;;;;;;1051517;28;825;-42
2022/02/26 02:43:54;;;;;;;;;;;;;;;;;;1051677;28;937;-42
2022/02/26 02:44:24;;;;;;;;;;;;;;;;;;1051518;28;833;-42
2022/02/26 02:44:55;;;;;;;;;;;;;;;;;;1051599;28;1042;-41
2022/02/26 02:45:27;;;;;;;;;;;;;;;;;;1051453;28;877;-41
2022/02/26 02:45:57;;;;;;;;;;;;;;;;;;1051539;28;1097;-42
2022/02/26 02:46:28;;;;;;;;;;;;;;;;;;1051415;28;1018;-41
2022/02/26 02:46:58;;;;;;;;;;;;;;;;;;1051636;28;889;-41
2022/02/26 02:47:30;;;;;;;;;;;;;;;;;;1051318;28;959;-41
2022/02/26 02:48:00;;;;;;;;;;;;;;;;;;1051722;28;845;-41
2022/02/26 02:48:30;;;;;;;;;;;;;;;;;;1050852;28;1979;-41
2022/02/26 02:49:01;;;;;;;;;;;;;;;;;;1051398;28;849;-42
2022/02/26 02:49:31;;;;;;;;;;;;;;;;;;1051619;28;1030;-43
2022/02/26 02:50:02;;;;;;;;;;;;;;;;;;1051268;28;977;-42
2022/02/26 02:50:32;;;;;;;;;;;;;;;;;;1051744;28;1082;-41
2022/02/26 02:51:03;;;;;;;;;;;;;;;;;;1051308;28;842;-42
2022/02/26 02:51:33;;;;;;;;;;;;;;;;;;1051673;28;963;-42
2022/02/26 02:52:04;;;;;;;;;;;;;;;;;;1051372;28;937;-42
2022/02/26 02:52:34;;;;;;;;;;;;;;;;;;1051708;28;802;-42
2022/02/26 02:53:05;;;;;;;;;;;;;;;;;;1051361;28;952;-42
2022/02/26 02:53:35;;;;;;;;;;;;;;;;;;1051628;28;992;-42
2022/02/26 02:54:05;;;;;;;;;;;;;;;;;;1051368;28;959;-42
2022/02/26 02:54:35;;;;;;;;;;;;;;;;;;1051573;28;936;-42
2022/02/26 02:55:06;;;;;;;;;;;;;;;;;;1051549;28;956;-42
2022/02/26 02:55:36;;;;;;;;;;;;;;;;;;1050830;28;1002;-42
2022/02/26 02:56:07;;;;;;;;;;;;;;;;;;1051627;28;1689;-42
2022/02/26 02:56:39;;;;;;;;;;;;;;;;;;1051050;28;894;-42
2022/02/26 02:57:09;;;;;;;;;;;;;;;;;;1051849;28;849;-42
2022/02/26 02:57:40;;;;;;;;;;;;;;;;;;1051209;28;919;-42
2022/02/26 02:58:11;;;;;;;;;;;;;;;;;;1051408;28;829;-42
2022/02/26 02:58:41;;;;;;;;;;;;;;;;;;1051369;28;879;-42
2022/02/26 02:59:11;;;;;;;;;;;;;;;;;;1051494;28;959;-42
2022/02/26 02:59:41;;;;;;;;;;;;;;;;;;1051539;28;929;-42
2022/02/26 03:00:13;;;;;;;;;;;;;;;;;;1051498;28;865;-42
2022/02/26 03:00:44;;;;;;;;;;;;;;;;;;1051514;28;941;-42
2022/02/26 03:01:14;;;;;;;;;;;;;;;;;;1051552;28;916;-41
2022/02/26 03:01:44;;;;;;;;;;;;;;;;;;1051414;28;1040;-42
2022/02/26 03:02:15;;;;;;;;;;;;;;;;;;1051478;28;884;-42
2022/02/26 03:02:45;;;;;;;;;;;;;;;;;;1051616;28;932;-42
2022/02/26 03:03:16;;;;;;;;;;;;;;;;;;1050770;28;967;-42
2022/02/26 03:03:47;;;;;;;;;;;;;;;;;;1051342;28;883;-42
2022/02/26 03:04:17;;;;;;;;;;;;;;;;;;1051562;28;939;-42
2022/02/26 03:04:48;;;;;;;;;;;;;;;;;;1051436;28;880;-42
2022/02/26 03:05:21;;;;;;;;;;;;;;;;;;1051684;28;1091;-41
2022/02/26 03:05:52;;;;;;;;;;;;;;;;;;1051335;28;963;-41
2022/02/26 03:06:25;;;;;;;;;;;;;;;;;;1051533;28;912;-42
2022/02/26 03:06:55;;;;;;;;;;;;;;;;;;1051493;28;943;-42
2022/02/26 03:07:26;;;;;;;;;;;;;;;;;;1051314;28;1279;-41
2022/02/26 03:07:56;;;;;;;;;;;;;;;;;;1051562;28;864;-42
2022/02/26 03:08:26;;;;;;;;;;;;;;;;;;1051205;28;1985;-42
2022/02/26 03:08:57;;;;;;;;;;;;;;;;;;1051791;28;975;-42
2022/02/26 03:09:27;;;;;;;;;;;;;;;;;;1051282;28;872;-42
2022/02/26 03:09:58;;;;;;;;;;;;;;;;;;1051489;28;971;-42
2022/02/26 03:10:28;;;;;;;;;;;;;;;;;;1050701;28;943;-42
2022/02/26 03:10:58;;;;;;;;;;;;;;;;;;1051524;28;901;-42
2022/02/26 03:11:29;;;;;;;;;;;;;;;;;;1051321;28;1106;-42
2022/02/26 03:11:59;;;;;;;;;;;;;;;;;;1051684;28;817;-42
2022/02/26 03:12:30;;;;;;;;;;;;;;;;;;1051258;28;995;-42
2022/02/26 03:13:00;;;;;;;;;;;;;;;;;;1051610;28;940;-42
2022/02/26 03:13:32;;;;;;;;;;;;;;;;;;1051351;28;964;-42
2022/02/26 03:14:03;;;;;;;;;;;;;;;;;;1051421;28;781;-42
2022/02/26 03:14:33;;;;;;;;;;;;;;;;;;1051602;28;845;-42
2022/02/26 03:15:04;;;;;;;;;;;;;;;;;;1051336;28;924;-42
2022/02/26 03:15:34;;;;;;;;;;;;;;;;;;1051670;28;944;-42
2022/02/26 03:16:05;;;;;;;;;;;;;;;;;;1051267;28;1065;-42
2022/02/26 03:16:37;;;;;;;;;;;;;;;;;;1051376;28;1068;-42
2022/02/26 03:17:08;;;;;;;;;;;;;;;;;;1047333;28;979;-42
2022/02/26 03:17:39;;;;;;;;;;;;;;;;;;1046845;28;833;-42
2022/02/26 03:18:09;;;;;;;;;;;;;;;;;;1047100;28;944;-42
2022/02/26 03:18:39;;;;;;;;;;;;;;;;;;1047113;28;893;-42
2022/02/26 03:19:10;;;;;;;;;;;;;;;;;;1047441;28;892;-42
2022/02/26 03:19:40;;;;;;;;;;;;;;;;;;1047098;28;905;-42
2022/02/26 03:20:11;;;;;;;;;;;;;;;;;;1047405;28;951;-42
2022/02/26 03:20:41;;;;;;;;;;;;;;;;;;1046832;28;936;-41
2022/02/26 03:21:11;;;;;;;;;;;;;;;;;;1047693;28;837;-42
2022/02/26 03:21:42;;;;;;;;;;;;;;;;;;1046948;28;916;-42
2022/02/26 03:22:12;;;;;;;;;;;;;;;;;;1047518;28;779;-41
2022/02/26 03:22:42;;;;;;;;;;;;;;;;;;1046999;28;972;-41
2022/02/26 03:23:13;;;;;;;;;;;;;;;;;;1047338;28;936;-42
2022/02/26 03:23:43;;;;;;;;;;;;;;;;;;1047363;28;1367;-41
2022/02/26 03:24:14;;;;;;;;;;;;;;;;;;1047178;28;850;-42
2022/02/26 03:24:45;;;;;;;;;;;;;;;;;;1047217;28;1051;-42
2022/02/26 03:25:16;;;;;;;;;;;;;;;;;;1046687;28;911;-42
2022/02/26 03:25:47;;;;;;;;;;;;;;;;;;1047231;28;1161;-41
2022/02/26 03:26:17;;;;;;;;;;;;;;;;;;1047251;28;970;-41
2022/02/26 03:26:55;;;;;;;;;;;;;;;;;;1047144;28;925;-41
2022/02/26 03:27:26;;;;;;;;;;;;;;;;;;1047323;28;1709;-42
2022/02/26 03:27:56;;;;;;;;;;;;;;;;;;1047005;28;1084;-41
2022/02/26 03:28:27;;;;;;;;;;;;;;;;;;1047258;28;1925;-41
2022/02/26 03:28:57;;;;;;;;;;;;;;;;;;1047122;28;932;-41
2022/02/26 03:29:30;;;;;;;;;;;;;;;;;;1047364;28;987;-41
2022/02/26 03:30:01;;;;;;;;;;;;;;;;;;1047065;28;951;-42
2022/02/26 03:30:32;;;;;;;;;;;;;;;;;;1047463;28;912;-41
2022/02/26 03:31:02;;;;;;;;;;;;;;;;;;1046962;28;960;-41
2022/02/26 03:31:33;;;;;;;;;;;;;;;;;;1047437;28;924;-41
2022/02/26 03:32:07;;;;;;;;;;;;;;;;;;1047099;28;869;-41
2022/02/26 03:32:38;;;;;;;;;;;;;;;;;;1046551;28;875;-42
2022/02/26 03:33:08;;;;;;;;;;;;;;;;;;1047486;28;1046;-41
2022/02/26 03:33:39;;;;;;;;;;;;;;;;;;1046908;28;939;-41
2022/02/26 03:34:09;;;;;;;;;;;;;;;;;;1047654;28;856;-42
2022/02/26 03:34:39;;;;;;;;;;;;;;;;;;1047613;28;1159;-42
2022/02/26 03:35:10;;;;;;;;;;;;;;;;;;1051167;28;785;-41
2022/02/26 03:35:40;;;;;;;;;;;;;;;;;;1050948;28;963;-42
2022/02/26 03:36:10;;;;;;;;;;;;;;;;;;1046952;28;814;-41
2022/02/26 03:36:41;;;;;;;;;;;;;;;;;;1046889;28;1016;-42
2022/02/26 03:37:11;;;;;;;;;;;;;;;;;;1051077;28;885;-42